KCKI

Williamsburg Regional Airport

Kingstree, South Carolina, USA
METAR KCKI 172055Z AUTO 00000KT 10SM CLR 15/M03 A3023 RMK AO2
Observed Flight Rules
Dec-17 @ 20:55 UTC (33 minutes ago) Visual Flight Rules
Wind Visibility Clouds
Calm 10 miles
  • Clear skies
Temperatures Readings
Current 15°C / 59°F
Dewpoint -3°C / 27°F
Humidity 29%
Altimeter 30.23" Hg
Pressure 1024 hPa
Elevation 21
METAR KCKI 172055Z AUTO 00000KT 10SM CLR 15/M03 A3023 RMK AO2
Observed Flight Rules
Dec-17 @ 20:55 UTC
(33 minutes ago)
VFR
Wind Visibility
Calm 10 miles
Clouds
  • Clear skies
Temperature Dewpoint
15°C / 59°F -3°C / 27°F
Humidity Altimeter Pressure
29% 30.23" Hg 1024 hPa